KLSF/LSF METAR and TAF weather

Enter ICAO airport designator
Station Type Date Time Source
KLSF METAR 2019/04/22 23:56 UTC NOAA

KLSF 222356Z AUTO 00000KT 10SM CLR 21/16 A3009 RMK AO2 SLP194 T02090159 10287 20209 57006 $


Station Type Date Time Source
KLSF Decoded METAR 2019/04/22 23:56 UTC NOAA

Fort Benning, GA, United States (KLSF) 32-20N 084-50W 130M
Apr 22, 2019 - 07:56 PM EDT / 2019.04.22 2356 UTC
Wind: Calm:0
Visibility: 10 mile(s):0
Sky conditions: clear
Temperature: 69.6 F (20.9 C)
Dew Point: 60.6 F (15.9 C)
Relative Humidity: 73%
Pressure (altimeter): 30.09 in. Hg (1018 hPa)
Pressure tendency: 0.02 inches (0.6 hPa) lower than three hours ago
ob: KLSF 222356Z AUTO 00000KT 10SM CLR 21/16 A3009 RMK AO2 SLP194 T02090159 10287 20209 57006
cycle: 0

Station Type Date Time Source
KLSF TAF 2019/04/22 17:12 UTC NOAA

TAF KLSF 221700Z 2217/2323 22005KT 9999 SKC QNH3006INS
TEMPO 2309/2312 1600 BR
BECMG 2320/2321 25005KT 9999 SCT250 QNH3005INS TX29/2221Z TN10/2311Z

Example: see airport list